Time;durP1;ratioP1;P1;durP2;ratioP2;P2;SDS_P1;SDS_P2;PMS_P1;PMS_P2;Temp;Humidity;BMP_temperature;BMP_pressure;BME280_temperature;BME280_humidity;BME280_pressure;Samples;Min_cycle;Max_cycle;Signal;HPM_P1;HPM_P2
2023/05/16 00:02:17;;;;;;;;;5.33;4.00;;;;;10.25;100.00;101978.16;5067634;28;49712;-70
2023/05/16 00:04:43;;;;;;;;;9.67;2.33;;;;;10.21;100.00;101973.00;5070275;28;46234;-70
2023/05/16 00:07:08;;;;;;;;;2.67;2.67;;;;;10.18;99.32;101975.69;5068986;28;45509;-70
2023/05/16 00:09:33;;;;;;;;;3.00;3.00;;;;;10.14;100.00;101972.31;5074096;28;45561;-70
2023/05/16 00:11:59;;;;;;;;;8.67;4.00;;;;;9.99;100.00;101937.41;5063455;28;45970;-70
2023/05/16 00:14:25;;;;;;;;;4.67;4.00;;;;;10.11;100.00;101969.69;5063028;28;45435;-70
2023/05/16 00:16:53;;;;;;;;;6.00;4.00;;;;;10.05;100.00;101969.84;5066034;28;45470;-70
2023/05/16 00:19:19;;;;;;;;;5.67;3.00;;;;;10.05;100.00;101974.25;5069529;27;45530;-70
2023/05/16 00:21:44;;;;;;;;;3.67;3.67;;;;;10.06;100.00;101976.00;5061434;28;45284;-70
2023/05/16 00:24:10;;;;;;;;;3.33;2.33;;;;;10.03;100.00;101970.78;5067497;28;45233;-70
2023/05/16 00:26:35;;;;;;;;;7.33;2.00;;;;;9.93;100.00;101968.41;5066976;28;45385;-69
2023/05/16 00:29:01;;;;;;;;;2.67;2.67;;;;;9.86;100.00;101971.22;5062202;28;46449;-70
2023/05/16 00:31:26;;;;;;;;;2.33;2.33;;;;;9.92;100.00;101971.06;5071988;28;45975;-70
2023/05/16 00:33:52;;;;;;;;;2.00;2.00;;;;;9.85;100.00;101958.91;5060599;28;45323;-70
2023/05/16 00:36:18;;;;;;;;;6.33;2.00;;;;;9.89;100.00;101969.38;5060272;28;45289;-70
2023/05/16 00:38:43;;;;;;;;;4.33;3.33;;;;;9.72;100.00;101945.16;5068690;28;45743;-70
2023/05/16 00:41:08;;;;;;;;;7.67;5.33;;;;;9.88;100.00;101975.56;5062543;28;45528;-70
2023/05/16 00:43:34;;;;;;;;;4.00;2.00;;;;;9.89;100.00;101979.06;5067305;28;45363;-70
2023/05/16 00:45:59;;;;;;;;;6.00;2.00;;;;;9.83;100.00;101974.81;5080229;28;45725;-70
2023/05/16 00:48:25;;;;;;;;;7.00;3.33;;;;;9.85;100.00;101977.41;5062970;27;45390;-70
2023/05/16 00:50:52;;;;;;;;;7.33;3.00;;;;;9.84;100.00;101973.94;5070989;28;45518;-70
2023/05/16 00:53:18;;;;;;;;;8.00;7.00;;;;;9.79;100.00;101980.22;5074000;28;45320;-70
2023/05/16 00:55:44;;;;;;;;;3.00;3.00;;;;;9.79;100.00;101974.94;5073898;27;45295;-70
2023/05/16 00:58:10;;;;;;;;;7.67;3.00;;;;;9.76;100.00;101978.53;5065816;28;45656;-69
2023/05/16 01:00:36;;;;;;;;;4.67;1.67;;;;;9.69;100.00;101961.09;5063468;28;46601;-69
2023/05/16 01:03:04;;;;;;;;;6.33;2.00;;;;;9.74;100.00;101976.84;5063836;28;45473;-70
2023/05/16 01:05:30;;;;;;;;;3.67;3.00;;;;;9.72;100.00;101975.97;5074916;28;45403;-69
2023/05/16 01:07:55;;;;;;;;;6.33;3.67;;;;;9.64;100.00;101967.41;5064013;28;45485;-70
2023/05/16 01:10:21;;;;;;;;;5.67;3.00;;;;;9.67;100.00;101977.88;5061817;28;45919;-69
2023/05/16 01:13:06;;;;;;;;;3.00;2.67;;;;;9.65;100.00;101977.91;5068385;28;45378;-70
2023/05/16 01:15:44;;;;;;;;;3.33;1.00;;;;;9.62;100.00;101970.06;5063358;28;45344;-69
2023/05/16 01:18:28;;;;;;;;;8.00;4.00;;;;;9.62;100.00;101970.06;5063779;28;45415;-70
2023/05/16 01:21:07;;;;;;;;;6.00;4.00;;;;;9.60;100.00;101976.28;5065709;28;47707;-69
2023/05/16 01:23:38;;;;;;;;;6.00;4.00;;;;;9.60;100.00;101973.66;5059704;28;45451;-69
2023/05/16 01:26:25;;;;;;;;;3.00;3.00;;;;;9.56;100.00;101977.25;5062820;28;45576;-70
2023/05/16 01:28:51;;;;;;;;;7.00;2.00;;;;;9.56;100.00;101975.50;5066569;27;45676;-70
2023/05/16 01:31:17;;;;;;;;;1.33;1.33;;;;;9.42;100.00;101957.34;5062195;28;46239;-70
2023/05/16 01:33:43;;;;;;;;;3.00;2.00;;;;;9.41;100.00;101965.31;5070217;28;45299;-70
2023/05/16 01:36:17;;;;;;;;;4.00;3.67;;;;;9.49;100.00;101984.47;5069063;28;45414;-70
2023/05/16 01:39:24;;;;;;;;;6.00;2.67;;;;;9.40;100.00;101975.00;5069747;27;45396;-69
2023/05/16 01:41:58;;;;;;;;;4.00;2.33;;;;;9.43;100.00;101988.13;5061817;28;46396;-70
2023/05/16 01:44:34;;;;;;;;;5.00;2.00;;;;;9.32;100.00;101966.41;5063200;28;45411;-70
2023/05/16 01:47:06;;;;;;;;;3.00;2.67;;;;;9.39;100.00;101985.63;5084287;27;45355;-70
2023/05/16 01:49:42;;;;;;;;;3.00;1.00;;;;;9.33;100.00;101972.53;5065466;28;45308;-69
2023/05/16 01:52:12;;;;;;;;;3.00;3.00;;;;;9.34;100.00;101985.72;5062988;28;45971;-70
2023/05/16 01:54:42;;;;;;;;;6.00;3.00;;;;;9.34;100.00;101985.72;5061367;28;45455;-69
2023/05/16 01:57:09;;;;;;;;;5.33;2.67;;;;;9.31;100.00;101983.16;5065713;28;45414;-70
2023/05/16 01:59:35;;;;;;;;;3.33;2.33;;;;;9.29;100.00;101984.94;5073951;28;45462;-70
2023/05/16 02:02:01;;;;;;;;;6.67;1.67;;;;;9.32;100.00;101991.94;5073281;28;45406;-70
2023/05/16 02:04:26;;;;;;;;;6.00;3.00;;;;;9.30;100.00;101988.44;5059135;28;45354;-70
2023/05/16 02:06:52;;;;;;;;;7.33;3.00;;;;;9.18;100.00;101972.91;5062218;28;46199;-69
2023/05/16 02:09:17;;;;;;;;;4.33;2.00;;;;;9.24;100.00;101978.91;5075398;28;45509;-69
2023/05/16 02:11:43;;;;;;;;;3.00;3.00;;;;;9.23;100.00;101971.00;5072587;28;45297;-69
2023/05/16 02:14:08;;;;;;;;;3.00;3.00;;;;;9.29;100.00;101986.72;5067645;28;45272;-70
2023/05/16 02:16:35;;;;;;;;;6.00;3.00;;;;;9.24;100.00;101993.88;5064253;27;45320;-70
2023/05/16 02:19:00;;;;;;;;;6.00;3.33;;;;;9.22;100.00;101990.41;5058268;28;45411;-70
2023/05/16 02:21:26;;;;;;;;;0.00;0.00;;;;;9.22;100.00;101995.69;5064410;28;45549;-69
2023/05/16 02:23:51;;;;;;;;;3.00;2.33;;;;;9.21;100.00;101999.22;5070677;27;52146;-70
2023/05/16 02:26:16;;;;;;;;;3.33;2.67;;;;;9.17;100.00;101993.13;5061876;28;45398;-69
2023/05/16 02:28:42;;;;;;;;;1.67;1.00;;;;;9.17;100.00;102000.19;5060378;28;48477;-69
2023/05/16 02:31:07;;;;;;;;;4.00;2.00;;;;;9.17;100.00;102006.34;5061215;28;46176;-69
2023/05/16 02:33:33;;;;;;;;;2.33;2.00;;;;;9.15;100.00;102002.00;5060303;28;45538;-69
2023/05/16 02:35:58;;;;;;;;;3.33;2.67;;;;;9.14;100.00;102003.75;5068544;28;45490;-70
2023/05/16 02:38:24;;;;;;;;;4.67;1.67;;;;;9.12;100.00;102004.72;5064232;28;45323;-69
2023/05/16 02:40:49;;;;;;;;;2.33;2.33;;;;;9.04;100.00;101990.81;5061946;28;51731;-70
2023/05/16 02:43:15;;;;;;;;;1.67;1.67;;;;;9.03;100.00;101992.56;5069521;28;45392;-70
2023/05/16 02:45:40;;;;;;;;;3.33;2.00;;;;;9.03;100.00;101995.19;5070045;28;45339;-70
2023/05/16 02:48:06;;;;;;;;;1.67;1.67;;;;;9.00;100.00;101991.78;5058902;28;45419;-69
2023/05/16 02:50:33;;;;;;;;;5.33;3.00;;;;;9.00;100.00;102005.00;5060567;28;46918;-70
2023/05/16 02:53:01;;;;;;;;;2.00;2.00;;;;;8.95;100.00;102006.84;5069159;28;45342;-70
2023/05/16 02:55:27;;;;;;;;;2.67;2.00;;;;;8.97;100.00;102012.94;5069880;27;45345;-69
2023/05/16 02:57:52;;;;;;;;;3.33;3.33;;;;;8.93;100.00;102004.25;5079261;27;45350;-69
2023/05/16 03:00:18;;;;;;;;;4.00;2.67;;;;;8.88;100.00;101999.06;5073236;28;45344;-69
2023/05/16 03:02:44;;;;;;;;;2.00;2.00;;;;;8.84;100.00;102009.69;5069036;28;45335;-69
2023/05/16 03:05:10;;;;;;;;;1.00;1.00;;;;;8.78;100.00;102005.41;5067865;27;45407;-69
2023/05/16 03:07:38;;;;;;;;;3.33;3.33;;;;;8.79;100.00;102011.56;5069051;28;45362;-69
2023/05/16 03:10:04;;;;;;;;;7.33;3.67;;;;;8.70;100.00;101998.56;5067997;27;45345;-69
2023/05/16 03:12:30;;;;;;;;;2.00;2.00;;;;;8.59;100.00;101988.25;5067160;27;45288;-69
2023/05/16 03:14:55;;;;;;;;;7.33;3.00;;;;;8.62;100.00;101993.44;5063137;28;45480;-69
2023/05/16 03:17:20;;;;;;;;;3.00;1.00;;;;;8.70;100.00;102014.41;5069326;28;45605;-69
2023/05/16 03:19:46;;;;;;;;;4.67;3.00;;;;;8.74;100.00;102022.19;5064232;28;45361;-69
2023/05/16 03:22:11;;;;;;;;;4.67;2.00;;;;;8.73;100.00;102019.63;5067408;28;45437;-69
2023/05/16 03:24:36;;;;;;;;;6.00;2.00;;;;;8.61;100.00;102007.53;5061636;28;55368;-69
2023/05/16 03:27:02;;;;;;;;;4.00;2.67;;;;;8.74;100.00;102030.13;5066015;28;45429;-69
2023/05/16 03:29:28;;;;;;;;;2.00;2.00;;;;;8.72;100.00;102021.38;5061601;28;45916;-68
2023/05/16 03:31:53;;;;;;;;;2.00;2.00;;;;;8.71;100.00;102024.03;5061875;28;45521;-69
2023/05/16 03:34:19;;;;;;;;;2.33;2.00;;;;;8.66;100.00;102025.91;5064810;28;45379;-69
2023/05/16 03:36:44;;;;;;;;;4.67;3.00;;;;;8.71;100.00;102030.19;5062921;28;45401;-69
2023/05/16 03:39:10;;;;;;;;;3.00;2.00;;;;;8.72;100.00;102038.97;5068807;28;46177;-70
2023/05/16 03:41:35;;;;;;;;;4.00;2.33;;;;;8.71;100.00;102038.09;5070514;28;45398;-69
2023/05/16 03:44:00;;;;;;;;;6.00;2.33;;;;;8.74;100.00;102043.31;5066436;28;45217;-69
2023/05/16 03:46:26;;;;;;;;;2.00;2.00;;;;;8.72;100.00;102044.25;5061302;28;45590;-70
2023/05/16 03:48:51;;;;;;;;;4.67;4.00;;;;;8.67;100.00;102049.59;5061510;28;46017;-69
2023/05/16 03:51:16;;;;;;;;;4.00;2.67;;;;;8.58;100.00;102036.59;5072354;28;45551;-69
2023/05/16 03:53:42;;;;;;;;;11.00;4.00;;;;;8.64;100.00;102052.28;5077698;28;51625;-69
2023/05/16 03:56:07;;;;;;;;;9.00;5.33;;;;;8.60;100.00;102053.28;5063787;27;45426;-69
2023/05/16 03:58:32;;;;;;;;;6.00;3.00;;;;;8.60;100.00;102057.66;5076989;27;45428;-69
2023/05/16 04:00:58;;;;;;;;;2.67;2.00;;;;;8.56;100.00;102046.31;5069162;28;45254;-69
2023/05/16 04:03:27;;;;;;;;;5.33;3.00;;;;;8.61;100.00;102062.91;5064620;28;45267;-70
2023/05/16 04:05:54;;;;;;;;;9.33;1.67;;;;;8.62;100.00;102062.00;5069338;28;45457;-70
2023/05/16 04:08:19;;;;;;;;;1.33;1.33;;;;;8.55;100.00;102052.47;5065787;28;46058;-70
2023/05/16 04:10:45;;;;;;;;;7.33;3.33;;;;;8.60;100.00;102063.81;5070375;28;45574;-70
2023/05/16 04:13:10;;;;;;;;;7.33;3.33;;;;;8.57;100.00;102071.78;5071738;28;45415;-70
2023/05/16 04:15:35;;;;;;;;;5.33;3.00;;;;;8.56;100.00;102066.53;5079477;28;45514;-69
2023/05/16 04:18:01;;;;;;;;;6.67;4.33;;;;;8.58;100.00;102073.50;5063927;28;45624;-70
2023/05/16 04:20:26;;;;;;;;;4.00;1.00;;;;;8.58;100.00;102076.16;5061709;28;45438;-69
2023/05/16 04:22:52;;;;;;;;;4.33;3.00;;;;;8.57;100.00;102084.09;5072595;28;45729;-69
2023/05/16 04:25:17;;;;;;;;;6.33;4.67;;;;;8.54;100.00;102079.72;5061162;28;45320;-69
2023/05/16 04:27:42;;;;;;;;;2.33;2.00;;;;;8.58;100.00;102080.53;5064189;28;46024;-69
2023/05/16 04:30:10;;;;;;;;;4.67;3.00;;;;;8.51;100.00;102063.13;5067222;27;45347;-69
2023/05/16 04:32:35;;;;;;;;;3.00;3.00;;;;;8.55;100.00;102073.56;5075868;27;45283;-69
2023/05/16 04:35:01;;;;;;;;;3.33;2.00;;;;;8.60;100.00;102087.56;5069728;28;45423;-68
2023/05/16 04:37:27;;;;;;;;;7.67;3.67;;;;;8.59;100.00;102077.91;5073839;28;46025;-69
2023/05/16 04:39:53;;;;;;;;;3.67;2.67;;;;;8.56;100.00;102075.31;5061810;28;45454;-69
2023/05/16 04:42:18;;;;;;;;;3.00;3.00;;;;;8.54;100.00;102077.09;5074359;28;45641;-69
2023/05/16 04:44:44;;;;;;;;;2.67;2.67;;;;;8.57;100.00;102076.19;5073340;27;45576;-69
2023/05/16 04:47:09;;;;;;;;;4.67;2.00;;;;;8.59;100.00;102080.53;5071047;27;47015;-69
2023/05/16 04:49:35;;;;;;;;;3.00;2.00;;;;;8.58;100.00;102086.69;5064914;28;45578;-69
2023/05/16 04:52:01;;;;;;;;;7.00;2.00;;;;;8.59;100.00;102087.56;5075969;28;45360;-69
2023/05/16 04:54:26;;;;;;;;;8.67;4.33;;;;;8.60;100.00;102084.91;5062352;28;45501;-69
2023/05/16 04:56:51;;;;;;;;;4.33;3.00;;;;;8.63;100.00;102092.78;5074652;28;46295;-69
2023/05/16 04:59:17;;;;;;;;;2.00;1.67;;;;;8.63;100.00;102095.41;5064384;28;45485;-69
2023/05/16 05:01:42;;;;;;;;;6.00;3.33;;;;;8.65;100.00;102092.72;5060511;28;45731;-70
2023/05/16 05:04:07;;;;;;;;;5.33;4.33;;;;;8.69;100.00;102095.28;5060633;28;45304;-69
2023/05/16 05:06:33;;;;;;;;;5.67;3.33;;;;;8.72;100.00;102094.34;5060115;28;59332;-70
2023/05/16 05:08:58;;;;;;;;;4.00;4.00;;;;;8.79;100.00;102106.53;5068245;28;45320;-69
2023/05/16 05:11:23;;;;;;;;;4.00;3.00;;;;;8.82;100.00;102098.56;5061147;28;45403;-70
2023/05/16 05:13:49;;;;;;;;;3.67;2.00;;;;;8.85;100.00;102112.56;5064518;28;45405;-70
2023/05/16 05:16:14;;;;;;;;;6.00;2.00;;;;;8.91;100.00;102103.66;5062929;28;46126;-69
2023/05/16 05:18:39;;;;;;;;;3.00;3.00;;;;;8.94;100.00;102097.44;5061897;28;45385;-69
2023/05/16 05:21:05;;;;;;;;;7.33;4.00;;;;;8.98;100.00;102104.41;5060590;28;45215;-69
2023/05/16 05:23:30;;;;;;;;;5.33;3.00;;;;;9.02;100.00;102101.69;5068598;28;45396;-69
2023/05/16 05:25:55;;;;;;;;;6.00;3.00;;;;;9.07;100.00;102105.06;5072393;28;45391;-70
2023/05/16 05:28:21;;;;;;;;;3.67;3.00;;;;;9.14;100.00;102111.97;5064767;28;45417;-69
2023/05/16 05:30:47;;;;;;;;;4.67;4.67;;;;;9.14;100.00;102090.88;5070867;28;45304;-69
2023/05/16 05:33:15;;;;;;;;;4.00;2.00;;;;;9.29;100.00;102121.38;5078056;28;45493;-70
2023/05/16 05:35:40;;;;;;;;;3.33;1.00;;;;;9.30;100.00;102113.41;5068313;28;45477;-69
2023/05/16 05:38:06;;;;;;;;;7.33;6.00;;;;;9.28;100.00;102098.50;5059907;28;45487;-69
2023/05/16 05:40:31;;;;;;;;;3.00;3.00;;;;;9.42;100.00;102110.50;5060207;28;45493;-69
2023/05/16 05:42:56;;;;;;;;;4.67;2.00;;;;;9.45;100.00;102103.41;5062882;27;45615;-69
2023/05/16 05:45:22;;;;;;;;;9.00;2.67;;;;;9.57;100.00;102121.63;5068091;28;55654;-69
2023/05/16 05:47:47;;;;;;;;;6.33;2.00;;;;;9.61;100.00;102110.09;5067135;28;50496;-69
2023/05/16 05:50:14;;;;;;;;;2.00;2.00;;;;;9.65;99.97;102112.63;5067038;28;45371;-70
2023/05/16 05:52:40;;;;;;;;;3.33;3.33;;;;;9.73;100.00;102117.75;5073169;27;45382;-70
2023/05/16 05:55:05;;;;;;;;;6.00;4.00;;;;;9.69;100.00;102108.13;5060062;28;46387;-69
2023/05/16 05:57:31;;;;;;;;;3.33;3.33;;;;;9.88;100.00;102114.78;5078931;27;45574;-70
2023/05/16 05:59:56;;;;;;;;;4.00;3.00;;;;;9.94;96.41;102120.78;5071596;28;45779;-70
2023/05/16 06:02:21;;;;;;;;;5.00;1.67;;;;;9.97;96.14;102117.19;5063762;28;45302;-70
2023/05/16 06:04:46;;;;;;;;;3.00;3.00;;;;;10.09;98.75;102122.16;5072463;28;45730;-69
2023/05/16 06:07:14;;;;;;;;;3.33;3.00;;;;;10.13;93.16;102129.13;5064747;28;45345;-69
2023/05/16 06:09:41;;;;;;;;;2.00;2.00;;;;;10.15;92.76;102122.06;5067659;28;45558;-69
2023/05/16 06:12:07;;;;;;;;;2.00;1.33;;;;;10.22;93.34;102130.69;5063956;28;45448;-69
2023/05/16 06:14:32;;;;;;;;;4.00;3.00;;;;;10.29;94.23;102129.66;5071690;28;45286;-69
2023/05/16 06:16:57;;;;;;;;;2.00;1.33;;;;;10.38;93.13;102140.88;5076092;28;45421;-69
2023/05/16 06:19:22;;;;;;;;;7.00;2.00;;;;;10.37;94.12;102125.06;5073540;28;50192;-68
2023/05/16 06:21:48;;;;;;;;;3.00;1.33;;;;;10.48;93.08;102130.91;5061738;28;45497;-69
2023/05/16 06:24:13;;;;;;;;;4.67;2.67;;;;;10.52;92.77;102126.44;5068542;28;45430;-69
2023/05/16 06:26:39;;;;;;;;;3.00;2.33;;;;;10.48;91.42;102122.13;5069443;28;45457;-69
2023/05/16 06:29:04;;;;;;;;;1.00;1.00;;;;;10.66;90.00;102137.53;5068740;28;45349;-69
2023/05/16 06:31:30;;;;;;;;;1.00;1.00;;;;;10.72;91.41;102143.53;5071642;28;45493;-69
2023/05/16 06:33:56;;;;;;;;;4.33;1.00;;;;;10.77;89.67;102146.91;5066027;28;46485;-69
2023/05/16 06:36:21;;;;;;;;;4.33;2.00;;;;;10.89;90.77;102146.59;5069234;28;45503;-69
2023/05/16 06:38:46;;;;;;;;;4.00;2.00;;;;;11.00;90.47;102146.28;5071392;28;45409;-69
2023/05/16 06:41:12;;;;;;;;;2.33;2.00;;;;;11.11;90.56;102151.28;5073906;27;45544;-69
2023/05/16 06:43:37;;;;;;;;;5.00;2.00;;;;;11.20;88.73;102154.53;5070651;27;45469;-69
2023/05/16 06:46:02;;;;;;;;;1.00;1.00;;;;;11.31;89.89;102159.53;5074356;28;45446;-69
2023/05/16 06:48:28;;;;;;;;;1.00;1.00;;;;;11.43;89.09;102153.88;5079373;27;45458;-69
2023/05/16 06:50:54;;;;;;;;;3.00;1.33;;;;;11.50;84.88;102158.09;5077410;27;45375;-68
2023/05/16 06:53:19;;;;;;;;;1.00;1.00;;;;;11.58;86.60;102149.94;5068046;28;46264;-68
2023/05/16 06:55:45;;;;;;;;;3.33;1.00;;;;;11.65;86.93;102160.28;5068849;28;45470;-68
2023/05/16 06:58:11;;;;;;;;;1.00;1.00;;;;;11.66;84.43;102159.38;5058921;28;45364;-69
2023/05/16 07:00:36;;;;;;;;;1.00;1.00;;;;;11.73;83.61;102155.66;5059485;28;45414;-69
2023/05/16 07:03:02;;;;;;;;;1.00;1.00;;;;;11.78;82.71;102161.69;5065724;28;46264;-68
2023/05/16 07:05:27;;;;;;;;;1.00;1.00;;;;;11.76;86.50;102141.44;5072807;27;45535;-69
2023/05/16 07:07:53;;;;;;;;;3.00;1.00;;;;;11.95;86.04;102154.09;5064670;28;45799;-69
2023/05/16 07:10:18;;;;;;;;;0.33;0.33;;;;;11.97;80.80;102157.56;5077254;27;45429;-68
2023/05/16 07:12:45;;;;;;;;;3.00;0.00;;;;;12.02;81.11;102150.34;5067105;28;46111;-68
2023/05/16 07:15:10;;;;;;;;;2.67;1.00;;;;;12.16;82.00;102159.63;5059908;28;45453;-69
2023/05/16 07:17:35;;;;;;;;;2.67;2.00;;;;;12.25;81.61;102159.31;5061881;28;45309;-69
2023/05/16 07:20:01;;;;;;;;;1.67;1.00;;;;;12.35;81.41;102169.59;5077806;27;45666;-68
2023/05/16 07:22:26;;;;;;;;;1.33;1.00;;;;;12.30;81.00;102146.81;5058599;28;46004;-69
2023/05/16 07:24:55;;;;;;;;;1.67;0.67;;;;;12.45;79.75;102154.25;5065389;28;45563;-69
2023/05/16 07:27:21;;;;;;;;;2.33;1.00;;;;;12.61;79.21;102170.50;5065286;28;45296;-69
2023/05/16 07:29:46;;;;;;;;;4.33;1.00;;;;;12.67;81.54;102173.81;5071138;27;45442;-69
2023/05/16 07:32:11;;;;;;;;;1.00;1.00;;;;;12.77;78.60;102171.72;5061606;28;46953;-69
2023/05/16 07:34:37;;;;;;;;;2.67;0.00;;;;;12.88;79.53;102174.88;5066595;28;56038;-69
2023/05/16 07:37:03;;;;;;;;;3.00;2.00;;;;;12.89;78.96;102177.47;5058560;28;45509;-69
2023/05/16 07:39:28;;;;;;;;;1.33;0.67;;;;;12.99;79.20;102170.91;5069067;28;45570;-69
2023/05/16 07:41:54;;;;;;;;;2.33;1.00;;;;;13.13;78.57;102174.91;5061155;28;51799;-69
2023/05/16 07:44:19;;;;;;;;;5.00;2.00;;;;;13.22;76.51;102169.28;5068886;28;45358;-68
2023/05/16 07:46:44;;;;;;;;;2.00;0.33;;;;;13.14;76.25;102184.63;5061041;27;45276;-68
2023/05/16 07:49:10;;;;;;;;;0.67;0.33;;;;;13.18;75.79;102172.97;5058199;28;45462;-69
2023/05/16 07:51:35;;;;;;;;;1.00;0.00;;;;;13.22;76.25;102169.28;5057603;28;46186;-68
2023/05/16 07:54:01;;;;;;;;;3.33;0.00;;;;;13.28;73.35;102167.28;5058281;28;45321;-69
2023/05/16 07:56:27;;;;;;;;;1.33;1.33;;;;;13.27;74.80;102178.81;5058226;28;45476;-69
2023/05/16 07:58:53;;;;;;;;;1.67;1.00;;;;;13.42;75.06;102177.38;5058655;28;45327;-68
2023/05/16 08:01:19;;;;;;;;;1.67;1.67;;;;;13.54;74.41;102168.97;5058083;28;46217;-68
2023/05/16 08:03:45;;;;;;;;;1.00;1.00;;;;;13.71;74.46;102174.47;5068794;28;45574;-69
2023/05/16 08:06:10;;;;;;;;;1.00;1.00;;;;;13.80;72.12;102171.50;5077839;28;45335;-68
2023/05/16 08:08:36;;;;;;;;;1.00;1.00;;;;;13.83;71.70;102167.84;5078352;27;45378;-69
2023/05/16 08:11:01;;;;;;;;;0.00;0.00;;;;;13.61;70.62;102170.47;5058151;27;46222;-69
2023/05/16 08:13:26;;;;;;;;;3.00;1.00;;;;;13.41;71.13;102139.31;5060599;28;45375;-69
2023/05/16 08:15:52;;;;;;;;;3.33;1.00;;;;;13.69;72.69;102170.16;5080183;27;45503;-69
2023/05/16 08:18:17;;;;;;;;;3.33;2.00;;;;;13.83;72.78;102158.06;5080417;28;45300;-69
2023/05/16 08:20:42;;;;;;;;;0.33;0.33;;;;;13.91;67.66;102171.03;5080904;28;45461;-69
2023/05/16 08:23:08;;;;;;;;;2.33;1.00;;;;;13.91;67.55;102168.38;5081693;27;45213;-69
2023/05/16 08:25:34;;;;;;;;;2.00;1.00;;;;;14.03;67.63;102173.25;5080175;27;45391;-69
2023/05/16 08:28:00;;;;;;;;;3.33;0.67;;;;;14.04;66.83;102159.00;5061562;28;45315;-69
2023/05/16 08:30:27;;;;;;;;;1.67;1.33;;;;;14.16;70.37;102169.19;5073252;28;46255;-69
2023/05/16 08:32:52;;;;;;;;;1.00;1.00;;;;;14.26;70.90;102178.53;5080723;27;45394;-69
2023/05/16 08:35:17;;;;;;;;;3.00;1.00;;;;;14.32;68.21;102180.06;5077396;28;45488;-69
2023/05/16 08:37:43;;;;;;;;;1.00;1.00;;;;;14.50;68.94;102177.53;5069731;28;54480;-69
2023/05/16 08:40:09;;;;;;;;;0.67;0.67;;;;;14.41;64.77;102164.59;5065246;27;56840;-68
2023/05/16 08:42:36;;;;;;;;;0.67;0.00;;;;;14.45;64.55;102182.19;5061011;28;45461;-69
2023/05/16 08:45:02;;;;;;;;;3.00;1.67;;;;;14.52;64.88;102172.16;5074168;28;45405;-68
2023/05/16 08:47:30;;;;;;;;;3.00;0.00;;;;;14.63;65.20;102169.06;5069836;28;45262;-69
2023/05/16 08:49:57;;;;;;;;;3.00;1.00;;;;;14.73;64.96;102176.56;5076864;27;45591;-68
2023/05/16 08:52:27;;;;;;;;;2.00;1.00;;;;;14.70;64.30;102173.16;5068971;28;45519;-69
2023/05/16 08:54:53;;;;;;;;;1.67;1.00;;;;;14.60;62.38;102170.88;5064002;28;45303;-69
2023/05/16 08:57:19;;;;;;;;;0.00;0.00;;;;;14.48;63.72;102170.53;5071005;28;45530;-68
2023/05/16 08:59:45;;;;;;;;;0.00;0.00;;;;;14.38;61.68;102164.72;5067227;27;46063;-69
2023/05/16 09:02:10;;;;;;;;;1.00;1.00;;;;;14.55;61.95;102153.38;5081024;27;45363;-68
2023/05/16 09:04:37;;;;;;;;;1.67;1.00;;;;;14.70;62.44;102166.03;5080400;27;45307;-69
2023/05/16 09:07:03;;;;;;;;;0.00;0.00;;;;;14.80;61.13;102172.72;5071105;28;45491;-69
2023/05/16 09:09:29;;;;;;;;;0.00;0.00;;;;;14.86;61.38;102169.78;5066997;28;45505;-68
2023/05/16 09:11:55;;;;;;;;;0.33;0.33;;;;;14.92;62.46;102158.84;5080747;27;45308;-69
2023/05/16 09:14:20;;;;;;;;;2.00;0.00;;;;;14.98;59.28;102176.38;5063501;27;45379;-69
2023/05/16 09:17:03;;;;;;;;;0.33;0.33;;;;;14.95;60.00;102174.69;5080695;28;45338;-69
2023/05/16 09:19:36;;;;;;;;;1.67;1.00;;;;;15.13;59.32;102179.25;5066807;27;46177;-69
2023/05/16 09:22:02;;;;;;;;;2.67;0.00;;;;;15.28;59.81;102176.84;5068431;27;45462;-68
2023/05/16 09:24:28;;;;;;;;;0.67;0.00;;;;;15.35;59.12;102176.47;5066199;28;45296;-69
2023/05/16 09:26:53;;;;;;;;;0.33;0.00;;;;;15.46;59.89;102176.00;5060245;28;45366;-69
2023/05/16 09:29:18;;;;;;;;;2.67;0.67;;;;;15.67;59.89;102174.19;5065848;28;46271;-69
2023/05/16 09:31:44;;;;;;;;;1.00;1.00;;;;;15.81;58.35;102171.72;5080320;27;45354;-69
2023/05/16 09:34:11;;;;;;;;;1.33;0.67;;;;;15.96;61.78;102168.34;5080195;27;45279;-69
2023/05/16 09:36:36;;;;;;;;;1.67;1.00;;;;;16.23;59.65;102175.00;5074759;27;45751;-69
2023/05/16 09:39:02;;;;;;;;;0.33;0.33;;;;;16.12;57.92;102183.56;5074199;27;45711;-69
2023/05/16 09:41:31;;;;;;;;;0.00;0.00;;;;;16.01;58.37;102177.84;5071937;28;45395;-69
2023/05/16 09:43:57;;;;;;;;;0.00;0.00;;;;;15.72;58.15;102182.81;5071996;28;45713;-69
2023/05/16 09:46:25;;;;;;;;;0.00;0.00;;;;;15.59;59.61;102185.19;5066773;27;45729;-69
2023/05/16 09:48:51;;;;;;;;;0.00;0.00;;;;;15.59;57.52;102177.19;5080207;28;45539;-69
2023/05/16 09:51:21;;;;;;;;;4.00;2.00;;;;;15.59;57.78;102175.41;5065898;27;45354;-69
2023/05/16 09:53:46;;;;;;;;;0.00;0.00;;;;;15.36;56.08;102175.53;5060369;28;45363;-69
2023/05/16 09:56:13;;;;;;;;;0.00;0.00;;;;;15.19;58.53;102179.88;5073695;28;45491;-69
2023/05/16 09:58:41;;;;;;;;;0.67;0.67;;;;;15.16;57.93;102178.22;5065703;27;46315;-69
2023/05/16 10:01:07;;;;;;;;;0.00;0.00;;;;;15.30;58.96;102174.97;5059685;28;45373;-69
2023/05/16 10:03:40;;;;;;;;;1.00;0.00;;;;;15.25;59.06;102175.16;5059347;28;45245;-69
2023/05/16 10:06:06;;;;;;;;;1.33;0.00;;;;;15.26;59.63;102179.56;5059050;28;45438;-69
2023/05/16 10:08:35;;;;;;;;;1.00;1.00;;;;;15.22;58.98;102179.75;5059363;28;46420;-69
2023/05/16 10:11:01;;;;;;;;;2.00;1.00;;;;;15.09;58.81;102166.09;5072568;28;45420;-69
2023/05/16 10:13:32;;;;;;;;;2.00;0.33;;;;;15.13;58.26;102181.91;5066481;28;45348;-69
2023/05/16 10:16:00;;;;;;;;;1.00;1.00;;;;;15.19;57.85;102177.22;5066632;28;45482;-69
2023/05/16 10:18:29;;;;;;;;;1.67;0.00;;;;;15.19;58.37;102166.56;5072066;28;46294;-70
2023/05/16 10:20:57;;;;;;;;;0.00;0.00;;;;;15.12;57.96;102165.97;5065436;28;45535;-69
2023/05/16 10:23:25;;;;;;;;;1.33;0.00;;;;;14.97;56.97;102154.22;5076518;27;45432;-69
2023/05/16 10:25:50;;;;;;;;;0.00;0.00;;;;;15.13;57.68;102168.59;5072559;27;45375;-69
2023/05/16 10:28:16;;;;;;;;;0.00;0.00;;;;;15.33;58.51;102159.69;5072733;28;46779;-69
2023/05/16 10:30:44;;;;;;;;;1.00;1.00;;;;;15.68;57.25;102165.22;5063745;28;45262;-69
2023/05/16 10:33:15;;;;;;;;;2.00;0.00;;;;;15.89;55.38;102149.09;5063973;28;45344;-69
2023/05/16 10:35:41;;;;;;;;;1.00;1.00;;;;;16.22;55.59;102157.28;5059890;28;45339;-69
2023/05/16 10:38:11;;;;;;;;;0.00;0.00;;;;;16.50;54.41;102160.28;5060535;28;45355;-70
2023/05/16 10:40:38;;;;;;;;;0.67;0.67;;;;;16.78;56.93;102151.78;5059796;28;45719;-69
2023/05/16 10:43:07;;;;;;;;;0.00;0.00;;;;;17.02;55.36;102150.50;5063271;28;45448;-69
2023/05/16 10:45:32;;;;;;;;;1.67;0.00;;;;;16.96;53.34;102142.81;5073319;27;45440;-69
2023/05/16 10:48:05;;;;;;;;;1.00;0.00;;;;;17.02;51.98;102150.50;5066471;28;46290;-69
2023/05/16 10:50:44;;;;;;;;;1.00;0.00;;;;;16.88;54.73;102158.38;5069414;27;45518;-70
2023/05/16 10:53:16;;;;;;;;;5.00;2.00;;;;;17.08;54.36;102171.56;5073721;27;45677;-69
2023/05/16 10:55:59;;;;;;;;;0.00;0.00;;;;;17.30;53.74;102157.06;5068145;27;45610;-69
2023/05/16 10:58:37;;;;;;;;;0.00;0.00;;;;;17.42;52.72;102169.75;5075583;28;46063;-69
2023/05/16 11:01:26;;;;;;;;;1.00;1.00;;;;;17.60;53.41;102158.13;5087157;27;45421;-69
2023/05/16 11:03:57;;;;;;;;;0.00;0.00;;;;;17.83;54.40;102157.72;5059383;28;45461;-69
2023/05/16 11:06:23;;;;;;;;;2.00;1.00;;;;;17.93;52.64;102158.06;5061377;28;45454;-69
2023/05/16 11:09:14;;;;;;;;;0.00;0.00;;;;;18.11;50.90;102157.88;5062378;27;45402;-70
2023/05/16 11:11:40;;;;;;;;;1.00;1.00;;;;;18.07;49.71;102147.41;5062554;28;45362;-69
2023/05/16 11:14:06;;;;;;;;;2.00;0.33;;;;;18.14;52.22;102160.38;5058783;28;45467;-69
2023/05/16 11:16:33;;;;;;;;;3.00;0.00;;;;;17.92;49.07;102150.97;5058583;28;45331;-70
2023/05/16 11:19:06;;;;;;;;;0.00;0.00;;;;;17.89;51.78;102152.00;5070704;28;46208;-70
2023/05/16 11:22:10;;;;;;;;;0.33;0.33;;;;;17.91;50.71;102158.13;5073746;28;45413;-69
2023/05/16 11:24:38;;;;;;;;;0.00;0.00;;;;;17.73;51.07;102151.13;5075168;27;45342;-70